sensor_id;sensor_type;location;lat;lon;timestamp;pressure;altitude;pressure_sealevel;temperature
7389;BMP180;3735;50.136;11.062;2023-07-29T00:02:08;97659.00;;;18.70
7389;BMP180;3735;50.136;11.062;2023-07-29T00:04:34;97658.00;;;18.80
7389;BMP180;3735;50.136;11.062;2023-07-29T00:06:59;97654.00;;;18.70
7389;BMP180;3735;50.136;11.062;2023-07-29T00:09:25;97654.00;;;18.70
7389;BMP180;3735;50.136;11.062;2023-07-29T00:11:51;97653.00;;;18.60
7389;BMP180;3735;50.136;11.062;2023-07-29T00:14:16;97634.00;;;18.60
7389;BMP180;3735;50.136;11.062;2023-07-29T00:16:42;97645.00;;;18.60
7389;BMP180;3735;50.136;11.062;2023-07-29T00:19:08;97644.00;;;18.50
7389;BMP180;3735;50.136;11.062;2023-07-29T00:21:34;97640.00;;;18.50
7389;BMP180;3735;50.136;11.062;2023-07-29T00:24:00;97643.00;;;18.50
7389;BMP180;3735;50.136;11.062;2023-07-29T00:26:27;97644.00;;;18.50
7389;BMP180;3735;50.136;11.062;2023-07-29T00:28:56;97643.00;;;18.50
7389;BMP180;3735;50.136;11.062;2023-07-29T00:31:21;97641.00;;;18.50
7389;BMP180;3735;50.136;11.062;2023-07-29T00:33:47;97645.00;;;18.50
7389;BMP180;3735;50.136;11.062;2023-07-29T00:36:13;97634.00;;;18.60
7389;BMP180;3735;50.136;11.062;2023-07-29T00:38:39;97632.00;;;18.60
7389;BMP180;3735;50.136;11.062;2023-07-29T00:41:05;97633.00;;;18.60
7389;BMP180;3735;50.136;11.062;2023-07-29T00:43:30;97635.00;;;18.60
7389;BMP180;3735;50.136;11.062;2023-07-29T00:45:56;97635.00;;;18.60
7389;BMP180;3735;50.136;11.062;2023-07-29T00:48:25;97633.00;;;18.60
7389;BMP180;3735;50.136;11.062;2023-07-29T00:50:52;97636.00;;;18.60
7389;BMP180;3735;50.136;11.062;2023-07-29T00:53:18;97637.00;;;18.60
7389;BMP180;3735;50.136;11.062;2023-07-29T00:55:44;97639.00;;;18.60
7389;BMP180;3735;50.136;11.062;2023-07-29T00:58:10;97644.00;;;18.60
7389;BMP180;3735;50.136;11.062;2023-07-29T01:00:36;97630.00;;;18.60
7389;BMP180;3735;50.136;11.062;2023-07-29T01:03:02;97630.00;;;18.60
7389;BMP180;3735;50.136;11.062;2023-07-29T01:05:55;97627.00;;;18.60
7389;BMP180;3735;50.136;11.062;2023-07-29T01:09:02;97634.00;;;18.60
7389;BMP180;3735;50.136;11.062;2023-07-29T01:14:37;97629.00;;;18.60
7389;BMP180;3735;50.136;11.062;2023-07-29T01:17:09;97623.00;;;18.60
7389;BMP180;3735;50.136;11.062;2023-07-29T01:20:09;97626.00;;;18.60
7389;BMP180;3735;50.136;11.062;2023-07-29T01:22:37;97624.00;;;18.60
7389;BMP180;3735;50.136;11.062;2023-07-29T01:25:06;97624.00;;;18.60
7389;BMP180;3735;50.136;11.062;2023-07-29T01:27:32;97624.00;;;18.60
7389;BMP180;3735;50.136;11.062;2023-07-29T01:29:59;97619.00;;;18.60
7389;BMP180;3735;50.136;11.062;2023-07-29T01:35:26;97618.00;;;18.60
7389;BMP180;3735;50.136;11.062;2023-07-29T01:38:13;97614.00;;;18.60
7389;BMP180;3735;50.136;11.062;2023-07-29T01:40:40;97610.00;;;18.60
7389;BMP180;3735;50.136;11.062;2023-07-29T01:43:08;97615.00;;;18.60
7389;BMP180;3735;50.136;11.062;2023-07-29T01:45:34;97621.00;;;18.50
7389;BMP180;3735;50.136;11.062;2023-07-29T01:48:07;97615.00;;;18.50
7389;BMP180;3735;50.136;11.062;2023-07-29T01:50:34;97617.00;;;18.40
7389;BMP180;3735;50.136;11.062;2023-07-29T01:53:00;97616.00;;;18.50
7389;BMP180;3735;50.136;11.062;2023-07-29T01:55:26;97625.00;;;18.50
7389;BMP180;3735;50.136;11.062;2023-07-29T01:57:52;97623.00;;;18.40
7389;BMP180;3735;50.136;11.062;2023-07-29T02:00:21;97630.00;;;18.50
7389;BMP180;3735;50.136;11.062;2023-07-29T02:02:47;97633.00;;;18.50
7389;BMP180;3735;50.136;11.062;2023-07-29T02:05:12;97622.00;;;18.50
7389;BMP180;3735;50.136;11.062;2023-07-29T02:07:38;97628.00;;;18.50
7389;BMP180;3735;50.136;11.062;2023-07-29T02:10:04;97615.00;;;18.50
7389;BMP180;3735;50.136;11.062;2023-07-29T02:12:30;97622.00;;;18.50
7389;BMP180;3735;50.136;11.062;2023-07-29T02:14:56;97611.00;;;18.40
7389;BMP180;3735;50.136;11.062;2023-07-29T02:17:22;97621.00;;;18.40
7389;BMP180;3735;50.136;11.062;2023-07-29T02:19:47;97620.00;;;18.50
7389;BMP180;3735;50.136;11.062;2023-07-29T02:22:16;97625.00;;;18.40
7389;BMP180;3735;50.136;11.062;2023-07-29T02:24:43;97622.00;;;18.40
7389;BMP180;3735;50.136;11.062;2023-07-29T02:27:09;97620.00;;;18.40
7389;BMP180;3735;50.136;11.062;2023-07-29T02:29:34;97620.00;;;18.40
7389;BMP180;3735;50.136;11.062;2023-07-29T02:32:00;97609.00;;;18.30
7389;BMP180;3735;50.136;11.062;2023-07-29T02:34:26;97607.00;;;18.40
7389;BMP180;3735;50.136;11.062;2023-07-29T02:36:52;97595.00;;;18.40
7389;BMP180;3735;50.136;11.062;2023-07-29T02:39:18;97599.00;;;18.30
7389;BMP180;3735;50.136;11.062;2023-07-29T02:41:44;97606.00;;;18.40
7389;BMP180;3735;50.136;11.062;2023-07-29T02:44:09;97595.00;;;18.40
7389;BMP180;3735;50.136;11.062;2023-07-29T02:46:35;97599.00;;;18.30
7389;BMP180;3735;50.136;11.062;2023-07-29T02:49:03;97595.00;;;18.30
7389;BMP180;3735;50.136;11.062;2023-07-29T02:51:30;97593.00;;;18.20
7389;BMP180;3735;50.136;11.062;2023-07-29T02:53:56;97584.00;;;18.20
7389;BMP180;3735;50.136;11.062;2023-07-29T02:56:22;97589.00;;;18.10
7389;BMP180;3735;50.136;11.062;2023-07-29T02:58:48;97580.00;;;18.00
7389;BMP180;3735;50.136;11.062;2023-07-29T03:01:14;97585.00;;;18.00
7389;BMP180;3735;50.136;11.062;2023-07-29T03:03:39;97594.00;;;18.00
7389;BMP180;3735;50.136;11.062;2023-07-29T03:06:11;97598.00;;;17.90
7389;BMP180;3735;50.136;11.062;2023-07-29T03:08:37;97591.00;;;18.00
7389;BMP180;3735;50.136;11.062;2023-07-29T03:11:12;97592.00;;;18.00
7389;BMP180;3735;50.136;11.062;2023-07-29T03:13:38;97588.00;;;18.00
7389;BMP180;3735;50.136;11.062;2023-07-29T03:16:13;97580.00;;;18.00
7389;BMP180;3735;50.136;11.062;2023-07-29T03:18:41;97577.00;;;18.00
7389;BMP180;3735;50.136;11.062;2023-07-29T03:21:08;97575.00;;;18.00
7389;BMP180;3735;50.136;11.062;2023-07-29T03:23:34;97577.00;;;17.90
7389;BMP180;3735;50.136;11.062;2023-07-29T03:26:02;97578.00;;;17.80
7389;BMP180;3735;50.136;11.062;2023-07-29T03:28:32;97573.00;;;17.70
7389;BMP180;3735;50.136;11.062;2023-07-29T03:30:59;97572.00;;;17.70
7389;BMP180;3735;50.136;11.062;2023-07-29T03:33:25;97571.00;;;17.60
7389;BMP180;3735;50.136;11.062;2023-07-29T03:35:53;97569.00;;;17.60
7389;BMP180;3735;50.136;11.062;2023-07-29T03:38:19;97572.00;;;17.50
7389;BMP180;3735;50.136;11.062;2023-07-29T03:40:45;97574.00;;;17.50
7389;BMP180;3735;50.136;11.062;2023-07-29T03:43:11;97573.00;;;17.40
7389;BMP180;3735;50.136;11.062;2023-07-29T03:45:37;97569.00;;;17.40
7389;BMP180;3735;50.136;11.062;2023-07-29T03:48:04;97567.00;;;17.40
7389;BMP180;3735;50.136;11.062;2023-07-29T03:50:30;97572.00;;;17.30
7389;BMP180;3735;50.136;11.062;2023-07-29T03:52:56;97566.00;;;17.40
7389;BMP180;3735;50.136;11.062;2023-07-29T03:55:22;97564.00;;;17.40
7389;BMP180;3735;50.136;11.062;2023-07-29T03:57:48;97561.00;;;17.50
7389;BMP180;3735;50.136;11.062;2023-07-29T04:00:14;97558.00;;;17.60
7389;BMP180;3735;50.136;11.062;2023-07-29T04:02:42;97557.00;;;17.60
7389;BMP180;3735;50.136;11.062;2023-07-29T04:05:08;97559.00;;;17.70
7389;BMP180;3735;50.136;11.062;2023-07-29T04:07:35;97560.00;;;17.80
7389;BMP180;3735;50.136;11.062;2023-07-29T04:10:02;97556.00;;;17.80
7389;BMP180;3735;50.136;11.062;2023-07-29T04:12:28;97552.00;;;17.90
7389;BMP180;3735;50.136;11.062;2023-07-29T04:14:53;97557.00;;;17.90
7389;BMP180;3735;50.136;11.062;2023-07-29T04:17:19;97568.00;;;17.90
7389;BMP180;3735;50.136;11.062;2023-07-29T04:19:45;97568.00;;;17.90
7389;BMP180;3735;50.136;11.062;2023-07-29T04:22:11;97569.00;;;17.90
7389;BMP180;3735;50.136;11.062;2023-07-29T04:24:37;97560.00;;;17.90
7389;BMP180;3735;50.136;11.062;2023-07-29T04:27:04;97553.00;;;17.90
7389;BMP180;3735;50.136;11.062;2023-07-29T04:29:30;97556.00;;;17.90
7389;BMP180;3735;50.136;11.062;2023-07-29T04:31:55;97554.00;;;17.90
7389;BMP180;3735;50.136;11.062;2023-07-29T04:34:21;97557.00;;;17.90
7389;BMP180;3735;50.136;11.062;2023-07-29T04:36:47;97544.00;;;17.90
7389;BMP180;3735;50.136;11.062;2023-07-29T04:39:14;97555.00;;;18.10
7389;BMP180;3735;50.136;11.062;2023-07-29T04:41:40;97559.00;;;18.30
7389;BMP180;3735;50.136;11.062;2023-07-29T04:44:06;97572.00;;;18.60
7389;BMP180;3735;50.136;11.062;2023-07-29T04:46:32;97576.00;;;19.00
7389;BMP180;3735;50.136;11.062;2023-07-29T04:48:58;97575.00;;;19.60
7389;BMP180;3735;50.136;11.062;2023-07-29T04:51:24;97583.00;;;19.90
7389;BMP180;3735;50.136;11.062;2023-07-29T04:53:51;97580.00;;;20.10
7389;BMP180;3735;50.136;11.062;2023-07-29T04:56:17;97593.00;;;20.20
7389;BMP180;3735;50.136;11.062;2023-07-29T04:58:42;97598.00;;;20.40
7389;BMP180;3735;50.136;11.062;2023-07-29T05:01:08;97581.00;;;19.90
7389;BMP180;3735;50.136;11.062;2023-07-29T05:03:34;97598.00;;;19.10
7389;BMP180;3735;50.136;11.062;2023-07-29T05:06:00;97595.00;;;18.80
7389;BMP180;3735;50.136;11.062;2023-07-29T05:08:27;97590.00;;;18.30
7389;BMP180;3735;50.136;11.062;2023-07-29T05:10:53;97580.00;;;18.00
7389;BMP180;3735;50.136;11.062;2023-07-29T05:13:20;97581.00;;;17.90
7389;BMP180;3735;50.136;11.062;2023-07-29T05:15:48;97568.00;;;17.80
7389;BMP180;3735;50.136;11.062;2023-07-29T05:18:15;97565.00;;;17.70
7389;BMP180;3735;50.136;11.062;2023-07-29T05:20:41;97564.00;;;17.70
7389;BMP180;3735;50.136;11.062;2023-07-29T05:23:07;97552.00;;;17.60
7389;BMP180;3735;50.136;11.062;2023-07-29T05:25:33;97540.00;;;17.60
7389;BMP180;3735;50.136;11.062;2023-07-29T05:28:03;97548.00;;;17.50
7389;BMP180;3735;50.136;11.062;2023-07-29T05:30:30;97540.00;;;17.50
7389;BMP180;3735;50.136;11.062;2023-07-29T05:33:05;97553.00;;;17.50
7389;BMP180;3735;50.136;11.062;2023-07-29T05:35:33;97542.00;;;17.50
7389;BMP180;3735;50.136;11.062;2023-07-29T05:37:58;97547.00;;;17.50
7389;BMP180;3735;50.136;11.062;2023-07-29T05:40:24;97553.00;;;17.50
7389;BMP180;3735;50.136;11.062;2023-07-29T05:42:50;97539.00;;;17.50
7389;BMP180;3735;50.136;11.062;2023-07-29T05:45:16;97542.00;;;17.50
7389;BMP180;3735;50.136;11.062;2023-07-29T05:47:41;97550.00;;;17.60
7389;BMP180;3735;50.136;11.062;2023-07-29T05:50:08;97551.00;;;17.70
7389;BMP180;3735;50.136;11.062;2023-07-29T05:52:34;97540.00;;;17.80
7389;BMP180;3735;50.136;11.062;2023-07-29T05:55:00;97545.00;;;18.00
7389;BMP180;3735;50.136;11.062;2023-07-29T05:57:26;97544.00;;;18.10
7389;BMP180;3735;50.136;11.062;2023-07-29T05:59:52;97536.00;;;18.30
7389;BMP180;3735;50.136;11.062;2023-07-29T06:02:18;97536.00;;;18.40
7389;BMP180;3735;50.136;11.062;2023-07-29T06:04:43;97528.00;;;18.50
7389;BMP180;3735;50.136;11.062;2023-07-29T06:07:09;97518.00;;;18.70
7389;BMP180;3735;50.136;11.062;2023-07-29T06:09:35;97541.00;;;18.90
7389;BMP180;3735;50.136;11.062;2023-07-29T06:12:01;97543.00;;;19.10
7389;BMP180;3735;50.136;11.062;2023-07-29T06:14:26;97538.00;;;19.10
7389;BMP180;3735;50.136;11.062;2023-07-29T06:16:52;97534.00;;;19.20
7389;BMP180;3735;50.136;11.062;2023-07-29T06:19:21;97536.00;;;19.30
7389;BMP180;3735;50.136;11.062;2023-07-29T06:21:47;97530.00;;;19.30
7389;BMP180;3735;50.136;11.062;2023-07-29T06:24:13;97539.00;;;19.30
7389;BMP180;3735;50.136;11.062;2023-07-29T06:26:39;97535.00;;;19.20
7389;BMP180;3735;50.136;11.062;2023-07-29T06:29:05;97527.00;;;19.10
7389;BMP180;3735;50.136;11.062;2023-07-29T06:31:31;97530.00;;;19.00
7389;BMP180;3735;50.136;11.062;2023-07-29T06:33:58;97530.00;;;18.90
7389;BMP180;3735;50.136;11.062;2023-07-29T06:36:24;97533.00;;;19.00
7389;BMP180;3735;50.136;11.062;2023-07-29T06:38:50;97534.00;;;19.00
7389;BMP180;3735;50.136;11.062;2023-07-29T06:41:16;97535.00;;;19.00
7389;BMP180;3735;50.136;11.062;2023-07-29T06:43:42;97543.00;;;19.10
7389;BMP180;3735;50.136;11.062;2023-07-29T06:46:08;97542.00;;;19.00
7389;BMP180;3735;50.136;11.062;2023-07-29T06:48:33;97538.00;;;18.80
7389;BMP180;3735;50.136;11.062;2023-07-29T06:50:59;97532.00;;;18.80
7389;BMP180;3735;50.136;11.062;2023-07-29T06:53:27;97547.00;;;18.70
7389;BMP180;3735;50.136;11.062;2023-07-29T06:55:53;97550.00;;;18.70
7389;BMP180;3735;50.136;11.062;2023-07-29T06:58:19;97541.00;;;18.80
7389;BMP180;3735;50.136;11.062;2023-07-29T07:00:45;97533.00;;;19.10
7389;BMP180;3735;50.136;11.062;2023-07-29T07:03:11;97530.00;;;19.20
7389;BMP180;3735;50.136;11.062;2023-07-29T07:05:37;97531.00;;;19.40
7389;BMP180;3735;50.136;11.062;2023-07-29T07:08:03;97537.00;;;19.30
7389;BMP180;3735;50.136;11.062;2023-07-29T07:10:29;97537.00;;;19.30
7389;BMP180;3735;50.136;11.062;2023-07-29T07:12:54;97544.00;;;19.20
7389;BMP180;3735;50.136;11.062;2023-07-29T07:15:20;97542.00;;;19.10
7389;BMP180;3735;50.136;11.062;2023-07-29T07:17:46;97546.00;;;19.10
7389;BMP180;3735;50.136;11.062;2023-07-29T07:20:12;97551.00;;;18.90
7389;BMP180;3735;50.136;11.062;2023-07-29T07:22:37;97542.00;;;19.00
7389;BMP180;3735;50.136;11.062;2023-07-29T07:25:05;97538.00;;;18.90
7389;BMP180;3735;50.136;11.062;2023-07-29T07:27:31;97547.00;;;19.00
7389;BMP180;3735;50.136;11.062;2023-07-29T07:29:56;97527.00;;;18.90
7389;BMP180;3735;50.136;11.062;2023-07-29T07:32:22;97537.00;;;18.90
7389;BMP180;3735;50.136;11.062;2023-07-29T07:34:48;97541.00;;;19.10
7389;BMP180;3735;50.136;11.062;2023-07-29T07:37:14;97538.00;;;19.30
7389;BMP180;3735;50.136;11.062;2023-07-29T07:39:40;97523.00;;;19.10
7389;BMP180;3735;50.136;11.062;2023-07-29T07:42:06;97526.00;;;19.10
7389;BMP180;3735;50.136;11.062;2023-07-29T07:44:31;97523.00;;;18.80
7389;BMP180;3735;50.136;11.062;2023-07-29T07:46:57;97525.00;;;19.00
7389;BMP180;3735;50.136;11.062;2023-07-29T07:49:23;97524.00;;;19.10
7389;BMP180;3735;50.136;11.062;2023-07-29T07:51:49;97526.00;;;19.10
7389;BMP180;3735;50.136;11.062;2023-07-29T07:54:15;97515.00;;;19.10
7389;BMP180;3735;50.136;11.062;2023-07-29T07:56:40;97510.00;;;19.10
7389;BMP180;3735;50.136;11.062;2023-07-29T07:59:06;97514.00;;;19.30
7389;BMP180;3735;50.136;11.062;2023-07-29T08:01:36;97509.00;;;19.40
7389;BMP180;3735;50.136;11.062;2023-07-29T08:04:03;97498.00;;;19.40
7389;BMP180;3735;50.136;11.062;2023-07-29T08:06:30;97496.00;;;19.50
7389;BMP180;3735;50.136;11.062;2023-07-29T08:08:56;97490.00;;;19.50
7389;BMP180;3735;50.136;11.062;2023-07-29T08:11:22;97502.00;;;19.50
7389;BMP180;3735;50.136;11.062;2023-07-29T08:13:48;97512.00;;;19.50
7389;BMP180;3735;50.136;11.062;2023-07-29T08:16:14;97502.00;;;19.60
7389;BMP180;3735;50.136;11.062;2023-07-29T08:18:40;97496.00;;;19.60
7389;BMP180;3735;50.136;11.062;2023-07-29T08:21:06;97491.00;;;19.50
7389;BMP180;3735;50.136;11.062;2023-07-29T08:23:36;97486.00;;;19.50
7389;BMP180;3735;50.136;11.062;2023-07-29T08:26:06;97481.00;;;19.50
7389;BMP180;3735;50.136;11.062;2023-07-29T08:28:35;97477.00;;;19.30
7389;BMP180;3735;50.136;11.062;2023-07-29T08:31:01;97487.00;;;19.40
7389;BMP180;3735;50.136;11.062;2023-07-29T08:33:27;97490.00;;;19.20
7389;BMP180;3735;50.136;11.062;2023-07-29T08:35:53;97499.00;;;19.00
7389;BMP180;3735;50.136;11.062;2023-07-29T08:38:20;97498.00;;;19.00
7389;BMP180;3735;50.136;11.062;2023-07-29T08:43:52;97513.00;;;19.10
7389;BMP180;3735;50.136;11.062;2023-07-29T08:46:19;97517.00;;;19.30
7389;BMP180;3735;50.136;11.062;2023-07-29T08:48:46;97518.00;;;19.40
7389;BMP180;3735;50.136;11.062;2023-07-29T08:51:12;97528.00;;;19.30
7389;BMP180;3735;50.136;11.062;2023-07-29T08:53:39;97527.00;;;19.40
7389;BMP180;3735;50.136;11.062;2023-07-29T08:56:07;97530.00;;;19.20
7389;BMP180;3735;50.136;11.062;2023-07-29T08:58:33;97525.00;;;19.60
7389;BMP180;3735;50.136;11.062;2023-07-29T09:00:59;97501.00;;;19.80
7389;BMP180;3735;50.136;11.062;2023-07-29T09:03:25;97513.00;;;20.10
7389;BMP180;3735;50.136;11.062;2023-07-29T09:05:52;97524.00;;;20.50
7389;BMP180;3735;50.136;11.062;2023-07-29T09:08:19;97500.00;;;20.60
7389;BMP180;3735;50.136;11.062;2023-07-29T09:10:45;97503.00;;;21.00
7389;BMP180;3735;50.136;11.062;2023-07-29T09:13:10;97512.00;;;21.30
7389;BMP180;3735;50.136;11.062;2023-07-29T09:15:37;97522.00;;;21.60
7389;BMP180;3735;50.136;11.062;2023-07-29T09:18:19;97525.00;;;21.80
7389;BMP180;3735;50.136;11.062;2023-07-29T09:20:49;97535.00;;;21.60
7389;BMP180;3735;50.136;11.062;2023-07-29T09:23:16;97548.00;;;21.50
7389;BMP180;3735;50.136;11.062;2023-07-29T09:25:42;97545.00;;;21.40
7389;BMP180;3735;50.136;11.062;2023-07-29T09:28:14;97542.00;;;20.90
7389;BMP180;3735;50.136;11.062;2023-07-29T09:30:45;97548.00;;;20.60
7389;BMP180;3735;50.136;11.062;2023-07-29T09:33:11;97555.00;;;20.40
7389;BMP180;3735;50.136;11.062;2023-07-29T09:35:41;97554.00;;;20.20
7389;BMP180;3735;50.136;11.062;2023-07-29T09:38:07;97557.00;;;20.10
7389;BMP180;3735;50.136;11.062;2023-07-29T09:40:40;97564.00;;;19.90
7389;BMP180;3735;50.136;11.062;2023-07-29T09:43:09;97558.00;;;19.80
7389;BMP180;3735;50.136;11.062;2023-07-29T09:45:36;97565.00;;;19.60
7389;BMP180;3735;50.136;11.062;2023-07-29T09:48:04;97579.00;;;19.30
7389;BMP180;3735;50.136;11.062;2023-07-29T09:50:35;97574.00;;;19.00
7389;BMP180;3735;50.136;11.062;2023-07-29T09:53:02;97578.00;;;18.80
7389;BMP180;3735;50.136;11.062;2023-07-29T09:55:29;97566.00;;;18.60
7389;BMP180;3735;50.136;11.062;2023-07-29T09:57:59;97560.00;;;18.60
7389;BMP180;3735;50.136;11.062;2023-07-29T10:00:29;97568.00;;;18.70
7389;BMP180;3735;50.136;11.062;2023-07-29T10:02:59;97552.00;;;19.20
7389;BMP180;3735;50.136;11.062;2023-07-29T10:05:37;97554.00;;;19.60
7389;BMP180;3735;50.136;11.062;2023-07-29T10:08:05;97531.00;;;19.80
7389;BMP180;3735;50.136;11.062;2023-07-29T10:10:31;97540.00;;;20.00
7389;BMP180;3735;50.136;11.062;2023-07-29T10:12:57;97538.00;;;20.10
7389;BMP180;3735;50.136;11.062;2023-07-29T10:15:24;97516.00;;;20.30
7389;BMP180;3735;50.136;11.062;2023-07-29T10:17:51;97519.00;;;20.90
7389;BMP180;3735;50.136;11.062;2023-07-29T10:20:17;97528.00;;;21.90
7389;BMP180;3735;50.136;11.062;2023-07-29T10:22:46;97519.00;;;23.10
7389;BMP180;3735;50.136;11.062;2023-07-29T10:25:18;97514.00;;;23.60
7389;BMP180;3735;50.136;11.062;2023-07-29T10:28:03;97502.00;;;24.30
7389;BMP180;3735;50.136;11.062;2023-07-29T10:30:31;97494.00;;;24.50
7389;BMP180;3735;50.136;11.062;2023-07-29T10:33:01;97515.00;;;24.20
7389;BMP180;3735;50.136;11.062;2023-07-29T10:35:28;97520.00;;;24.00
7389;BMP180;3735;50.136;11.062;2023-07-29T10:37:54;97529.00;;;23.00
7389;BMP180;3735;50.136;11.062;2023-07-29T10:40:21;97512.00;;;23.20
7389;BMP180;3735;50.136;11.062;2023-07-29T10:43:10;97530.00;;;23.50
7389;BMP180;3735;50.136;11.062;2023-07-29T10:45:41;97523.00;;;23.60
7389;BMP180;3735;50.136;11.062;2023-07-29T10:48:11;97514.00;;;23.40
7389;BMP180;3735;50.136;11.062;2023-07-29T10:50:37;97517.00;;;24.40
7389;BMP180;3735;50.136;11.062;2023-07-29T10:53:04;97499.00;;;24.70
7389;BMP180;3735;50.136;11.062;2023-07-29T10:55:35;97498.00;;;25.80
7389;BMP180;3735;50.136;11.062;2023-07-29T10:58:16;97493.00;;;27.10
7389;BMP180;3735;50.136;11.062;2023-07-29T11:00:44;97500.00;;;28.50
7389;BMP180;3735;50.136;11.062;2023-07-29T11:03:14;97501.00;;;28.20
7389;BMP180;3735;50.136;11.062;2023-07-29T11:05:52;97510.00;;;28.50
7389;BMP180;3735;50.136;11.062;2023-07-29T11:08:30;97513.00;;;27.90
7389;BMP180;3735;50.136;11.062;2023-07-29T11:11:08;97520.00;;;27.90
7389;BMP180;3735;50.136;11.062;2023-07-29T11:13:36;97516.00;;;27.60
7389;BMP180;3735;50.136;11.062;2023-07-29T11:16:04;97523.00;;;27.70
7389;BMP180;3735;50.136;11.062;2023-07-29T11:18:35;97530.00;;;26.90
7389;BMP180;3735;50.136;11.062;2023-07-29T11:21:03;97531.00;;;25.90
7389;BMP180;3735;50.136;11.062;2023-07-29T11:23:31;97529.00;;;25.40
7389;BMP180;3735;50.136;11.062;2023-07-29T11:25:58;97526.00;;;26.20
7389;BMP180;3735;50.136;11.062;2023-07-29T11:28:26;97528.00;;;26.30
7389;BMP180;3735;50.136;11.062;2023-07-29T11:30:53;97520.00;;;25.80
7389;BMP180;3735;50.136;11.062;2023-07-29T11:33:26;97530.00;;;25.30
7389;BMP180;3735;50.136;11.062;2023-07-29T11:35:54;97530.00;;;26.00
7389;BMP180;3735;50.136;11.062;2023-07-29T11:38:22;97534.00;;;26.60
7389;BMP180;3735;50.136;11.062;2023-07-29T11:40:59;97533.00;;;26.50
7389;BMP180;3735;50.136;11.062;2023-07-29T11:43:26;97516.00;;;26.80
7389;BMP180;3735;50.136;11.062;2023-07-29T11:45:53;97521.00;;;27.30
7389;BMP180;3735;50.136;11.062;2023-07-29T11:48:32;97513.00;;;28.20
7389;BMP180;3735;50.136;11.062;2023-07-29T11:50:58;97510.00;;;27.00
7389;BMP180;3735;50.136;11.062;2023-07-29T11:53:28;97510.00;;;26.80
7389;BMP180;3735;50.136;11.062;2023-07-29T11:55:55;97501.00;;;26.90
7389;BMP180;3735;50.136;11.062;2023-07-29T11:58:21;97495.00;;;26.80
7389;BMP180;3735;50.136;11.062;2023-07-29T12:00:48;97501.00;;;26.20
7389;BMP180;3735;50.136;11.062;2023-07-29T12:03:14;97512.00;;;26.20
7389;BMP180;3735;50.136;11.062;2023-07-29T12:05:43;97500.00;;;25.90
7389;BMP180;3735;50.136;11.062;2023-07-29T12:08:09;97503.00;;;25.40
7389;BMP180;3735;50.136;11.062;2023-07-29T12:10:35;97509.00;;;25.50
7389;BMP180;3735;50.136;11.062;2023-07-29T12:13:02;97510.00;;;25.40
7389;BMP180;3735;50.136;11.062;2023-07-29T12:15:29;97500.00;;;25.50
7389;BMP180;3735;50.136;11.062;2023-07-29T12:17:56;97500.00;;;25.50
7389;BMP180;3735;50.136;11.062;2023-07-29T12:20:23;97503.00;;;25.60
7389;BMP180;3735;50.136;11.062;2023-07-29T12:22:54;97498.00;;;25.70
7389;BMP180;3735;50.136;11.062;2023-07-29T12:25:20;97491.00;;;26.30
7389;BMP180;3735;50.136;11.062;2023-07-29T12:27:47;97492.00;;;27.90
7389;BMP180;3735;50.136;11.062;2023-07-29T12:30:13;97479.00;;;28.50
7389;BMP180;3735;50.136;11.062;2023-07-29T12:32:46;97484.00;;;28.70
7389;BMP180;3735;50.136;11.062;2023-07-29T12:35:13;97474.00;;;29.50
7389;BMP180;3735;50.136;11.062;2023-07-29T12:37:39;97472.00;;;29.30
7389;BMP180;3735;50.136;11.062;2023-07-29T12:40:24;97463.00;;;29.30
7389;BMP180;3735;50.136;11.062;2023-07-29T12:42:51;97467.00;;;29.00
7389;BMP180;3735;50.136;11.062;2023-07-29T12:45:17;97456.00;;;29.50
7389;BMP180;3735;50.136;11.062;2023-07-29T12:47:43;97453.00;;;29.90
7389;BMP180;3735;50.136;11.062;2023-07-29T12:50:09;97464.00;;;29.10
7389;BMP180;3735;50.136;11.062;2023-07-29T12:52:35;97469.00;;;28.60
7389;BMP180;3735;50.136;11.062;2023-07-29T12:55:01;97477.00;;;29.00
7389;BMP180;3735;50.136;11.062;2023-07-29T12:57:26;97458.00;;;29.60
7389;BMP180;3735;50.136;11.062;2023-07-29T12:59:52;97460.00;;;31.00
7389;BMP180;3735;50.136;11.062;2023-07-29T13:02:18;97456.00;;;30.80
7389;BMP180;3735;50.136;11.062;2023-07-29T13:04:44;97441.00;;;30.80
7389;BMP180;3735;50.136;11.062;2023-07-29T13:07:09;97456.00;;;29.60
7389;BMP180;3735;50.136;11.062;2023-07-29T13:09:35;97449.00;;;27.80
7389;BMP180;3735;50.136;11.062;2023-07-29T13:12:01;97454.00;;;27.70
7389;BMP180;3735;50.136;11.062;2023-07-29T13:14:27;97451.00;;;29.00
7389;BMP180;3735;50.136;11.062;2023-07-29T13:16:53;97439.00;;;29.40
7389;BMP180;3735;50.136;11.062;2023-07-29T13:19:19;97443.00;;;29.90
7389;BMP180;3735;50.136;11.062;2023-07-29T13:21:45;97443.00;;;30.20
7389;BMP180;3735;50.136;11.062;2023-07-29T13:24:10;97450.00;;;29.50
7389;BMP180;3735;50.136;11.062;2023-07-29T13:26:36;97445.00;;;29.20
7389;BMP180;3735;50.136;11.062;2023-07-29T13:29:02;97440.00;;;29.10
7389;BMP180;3735;50.136;11.062;2023-07-29T13:31:29;97427.00;;;28.70
7389;BMP180;3735;50.136;11.062;2023-07-29T13:33:56;97435.00;;;29.30
7389;BMP180;3735;50.136;11.062;2023-07-29T13:36:22;97426.00;;;30.50
7389;BMP180;3735;50.136;11.062;2023-07-29T13:38:47;97432.00;;;30.00
7389;BMP180;3735;50.136;11.062;2023-07-29T13:41:13;97423.00;;;28.90
7389;BMP180;3735;50.136;11.062;2023-07-29T13:43:39;97419.00;;;30.20
7389;BMP180;3735;50.136;11.062;2023-07-29T13:46:05;97418.00;;;31.30
7389;BMP180;3735;50.136;11.062;2023-07-29T13:48:31;97421.00;;;30.50
7389;BMP180;3735;50.136;11.062;2023-07-29T13:50:58;97419.00;;;30.20
7389;BMP180;3735;50.136;11.062;2023-07-29T13:53:24;97419.00;;;31.60
7389;BMP180;3735;50.136;11.062;2023-07-29T13:55:51;97413.00;;;31.30
7389;BMP180;3735;50.136;11.062;2023-07-29T13:58:17;97420.00;;;31.20
7389;BMP180;3735;50.136;11.062;2023-07-29T14:00:42;97411.00;;;30.80
7389;BMP180;3735;50.136;11.062;2023-07-29T14:03:08;97419.00;;;30.80
7389;BMP180;3735;50.136;11.062;2023-07-29T14:05:34;97412.00;;;30.60
7389;BMP180;3735;50.136;11.062;2023-07-29T14:08:00;97418.00;;;31.70
7389;BMP180;3735;50.136;11.062;2023-07-29T14:10:26;97406.00;;;31.80
7389;BMP180;3735;50.136;11.062;2023-07-29T14:12:52;97407.00;;;31.30
7389;BMP180;3735;50.136;11.062;2023-07-29T14:15:17;97400.00;;;31.60
7389;BMP180;3735;50.136;11.062;2023-07-29T14:17:44;97409.00;;;30.30
7389;BMP180;3735;50.136;11.062;2023-07-29T14:20:10;97400.00;;;30.20
7389;BMP180;3735;50.136;11.062;2023-07-29T14:22:36;97401.00;;;30.10
7389;BMP180;3735;50.136;11.062;2023-07-29T14:25:02;97409.00;;;29.40
7389;BMP180;3735;50.136;11.062;2023-07-29T14:27:27;97403.00;;;29.20
7389;BMP180;3735;50.136;11.062;2023-07-29T14:29:53;97409.00;;;28.90
7389;BMP180;3735;50.136;11.062;2023-07-29T14:32:19;97396.00;;;27.80